.
WxDataArchive / Data Records for 2013-03-28
2013-03-27 March 2013 2013-03-29

Data Records for Thursday, 28 March 2013

Time	Temp	Chill	HIndex	Humid	Dewpt	 Wind 	HiWind	WindDir	Rain 	Barom 
-----	----	-----	------	-----	-----	------	------	-------	-----	----- 
00:00	31.6	31.6	31.6	59	18.9	0	1	225	0.00	30.286 
00:05	31.3	31.3	31.3	59	18.7	0	0	---	0.00	30.286 
00:10	31.3	31.3	31.3	60	19.0	0	1	225	0.00	30.286 
00:15	31.3	31.3	31.3	60	19.0	0	1	225	0.00	30.287 
00:20	31.3	31.3	31.3	60	19.0	0	1	225	0.00	30.287 
00:25	31.3	31.3	31.3	60	19.0	0	1	225	0.00	30.287 
00:30	31.3	31.3	31.3	60	19.0	0	1	225	0.00	30.287 
00:35	31.3	31.3	31.3	60	19.0	0	1	225	0.00	30.287 
00:40	31.2	31.2	31.2	60	19.0	0	1	225	0.00	30.287 
00:45	31.0	31.0	31.0	61	19.1	0	1	225	0.00	30.287 
00:50	30.9	30.9	30.9	61	19.1	0	0	---	0.00	30.287 
00:55	30.9	30.9	30.9	61	19.1	0	0	---	0.00	30.287 
01:00	30.7	30.7	30.7	61	18.9	0	0	---	0.00	30.287 
01:05	30.4	30.4	30.4	62	19.0	0	1	225	0.00	30.287 
01:10	30.3	30.3	30.3	62	18.9	0	0	---	0.00	30.287 
01:15	30.0	30.0	30.0	63	19.0	0	0	---	0.00	30.287 
01:20	29.8	29.8	29.8	63	18.8	0	0	---	0.00	30.287 
01:25	29.8	29.8	29.8	64	19.1	0	0	---	0.00	30.287 
01:30	29.8	29.8	29.8	64	19.1	0	0	---	0.00	30.286 
01:35	29.8	29.8	29.8	64	19.1	0	1	225	0.00	30.286 
01:40	29.8	29.8	29.8	64	19.1	0	0	---	0.00	30.286 
01:45	29.8	29.8	29.8	64	19.1	0	1	225	0.00	30.287 
01:50	29.7	29.7	29.7	64	19.0	0	0	---	0.00	30.287 
01:55	29.5	29.5	29.5	64	18.8	0	0	---	0.00	30.287 
02:00	29.4	29.4	29.4	65	19.1	0	0	---	0.00	30.288 
02:05	29.1	29.1	29.1	65	18.8	0	0	---	0.00	30.288 
02:10	29.0	29.0	29.0	65	18.7	0	0	---	0.00	30.288 
02:15	28.8	28.8	28.8	65	18.5	0	0	---	0.00	30.287 
02:20	28.8	28.8	28.8	65	18.5	0	0	---	0.00	30.287 
02:25	28.7	28.7	28.7	65	18.4	0	0	---	0.00	30.287 
02:30	28.7	28.7	28.7	65	18.4	0	0	---	0.00	30.287 
02:35	28.5	28.5	28.5	66	18.6	0	0	---	0.00	30.287 
02:40	28.4	28.4	28.4	66	18.5	0	0	---	0.00	30.287 
02:45	28.4	28.4	28.4	66	18.5	0	0	---	0.00	30.290 
02:50	28.4	28.4	28.4	66	18.5	0	0	---	0.00	30.290 
02:55	28.4	28.4	28.4	67	18.9	0	0	---	0.00	30.290 
03:00	28.2	28.2	28.2	67	18.7	0	0	---	0.00	30.292 
03:05	28.4	28.4	28.4	68	19.2	0	0	---	0.00	30.292 
03:10	28.4	28.4	28.4	68	19.2	0	1	225	0.00	30.292 
03:15	28.4	28.4	28.4	68	19.2	0	0	---	0.00	30.289 
03:20	28.4	28.4	28.4	69	19.5	0	1	225	0.00	30.289 
03:25	28.4	28.4	28.4	69	19.5	0	0	---	0.00	30.289 
03:30	28.4	28.4	28.4	69	19.5	0	0	---	0.00	30.288 
03:35	28.4	28.4	28.4	69	19.5	0	0	---	0.00	30.288 
03:40	28.2	28.2	28.2	69	19.4	0	1	225	0.00	30.288 
03:45	28.1	28.1	28.1	69	19.3	0	1	225	0.00	30.289 
03:50	28.2	28.2	28.2	69	19.4	0	1	225	0.00	30.289 
03:55	28.1	28.1	28.1	69	19.3	0	1	225	0.00	30.289 
04:00	28.1	28.1	28.1	69	19.3	0	1	225	0.00	30.288 
04:05	28.1	28.1	28.1	69	19.3	0	1	225	0.00	30.288 
04:10	28.1	28.1	28.1	69	19.3	0	0	---	0.00	30.288 
04:15	28.1	28.1	28.1	69	19.3	0	0	---	0.00	30.289 
04:20	28.1	28.1	28.1	69	19.3	0	0	---	0.00	30.289 
04:25	27.9	27.9	27.9	69	19.1	0	0	---	0.00	30.289 
04:30	27.9	27.9	27.9	69	19.1	0	0	---	0.00	30.290 
04:35	27.9	27.9	27.9	69	19.1	0	0	---	0.00	30.290 
04:40	27.8	27.8	27.8	69	19.0	0	0	---	0.00	30.290 
04:45	27.6	27.6	27.6	69	18.8	0	0	---	0.00	30.291 
04:50	27.5	27.5	27.5	70	19.0	0	0	---	0.00	30.291 
04:55	27.5	27.5	27.5	70	19.0	0	1	225	0.00	30.291 
05:00	27.5	27.5	27.5	70	19.0	0	0	---	0.00	30.290 
05:05	27.5	27.5	27.5	70	19.0	0	0	---	0.00	30.290 
05:10	27.5	27.5	27.5	70	19.0	0	0	---	0.00	30.290 
05:15	27.3	27.3	27.3	70	18.8	0	0	---	0.00	30.289 
05:20	27.3	27.3	27.3	70	18.8	0	1	225	0.00	30.289 
05:25	27.2	27.2	27.2	70	18.7	0	0	---	0.00	30.289 
05:30	27.2	27.2	27.2	70	18.7	0	0	---	0.00	30.289 
05:35	27.2	27.2	27.2	70	18.7	0	1	225	0.00	30.289 
05:40	27.2	27.2	27.2	70	18.7	0	1	225	0.00	30.289 
05:45	27.2	27.2	27.2	70	18.7	0	1	225	0.00	30.289 
05:50	27.2	27.2	27.2	70	18.7	0	1	225	0.00	30.289 
05:55	27.3	27.3	27.3	70	18.8	0	1	225	0.00	30.289 
06:00	27.3	27.3	27.3	70	18.8	0	1	225	0.00	30.290 
06:05	27.3	27.3	27.3	70	18.8	0	1	225	0.00	30.290 
06:10	27.3	27.3	27.3	70	18.8	0	1	225	0.00	30.290 
06:15	27.3	27.3	27.3	70	18.8	0	0	---	0.00	30.292 
06:20	27.3	27.3	27.3	70	18.8	0	0	---	0.00	30.292 
06:25	27.0	27.0	27.0	70	18.5	0	0	---	0.00	30.292 
06:30	27.0	27.0	27.0	70	18.5	0	0	---	0.00	30.295 
06:35	26.9	26.9	26.9	71	18.8	0	1	225	0.00	30.295 
06:40	26.9	26.9	26.9	71	18.8	0	1	225	0.00	30.295 
06:45	27.0	27.0	27.0	71	18.9	0	1	225	0.00	30.297 
06:50	27.0	27.0	27.0	71	18.9	0	1	225	0.00	30.297 
06:55	27.2	27.2	27.2	71	19.1	0	1	225	0.00	30.297 
07:00	27.2	27.2	27.2	71	19.1	0	0	---	0.00	30.302 
07:05	27.2	27.2	27.2	71	19.1	0	0	---	0.00	30.302 
07:10	27.2	27.2	27.2	71	19.1	0	1	225	0.00	30.302 
07:15	27.2	27.2	27.2	71	19.1	0	0	---	0.00	30.305 
07:20	27.0	27.0	27.0	70	18.5	0	0	---	0.00	30.305 
07:25	27.0	27.0	27.0	70	18.5	0	0	---	0.00	30.305 
07:30	26.9	26.9	26.9	71	18.8	0	0	---	0.00	30.308 
07:35	26.7	26.7	26.7	71	18.6	0	0	---	0.00	30.308 
07:40	26.7	26.7	26.7	71	18.6	0	0	---	0.00	30.308 
07:45	26.7	26.7	26.7	72	18.9	0	0	---	0.00	30.317 
07:50	26.7	26.7	26.7	72	18.9	0	0	---	0.00	30.317 
07:55	26.7	26.7	26.7	72	18.9	0	1	225	0.00	30.317 
08:00	26.9	26.9	26.9	72	19.1	0	1	225	0.00	30.320 
08:05	27.3	27.3	27.3	72	19.5	0	1	225	0.00	30.320 
08:10	27.8	27.8	27.8	72	20.0	0	0	---	0.00	30.320 
08:15	28.2	28.2	28.2	71	20.0	0	1	225	0.00	30.322 
08:20	28.5	28.5	28.5	70	20.0	0	1	225	0.00	30.322 
08:25	29.0	29.0	29.0	70	20.5	0	1	225	0.00	30.322 
08:30	29.5	29.5	29.5	69	20.6	0	1	225	0.00	30.322 
08:35	30.0	30.0	30.0	67	20.4	0	2	225	0.00	30.322 
08:40	30.6	30.6	30.6	66	20.6	0	2	225	0.00	30.322 
08:45	31.2	31.2	31.2	65	20.8	0	2	225	0.00	30.321 
08:50	31.6	31.6	31.6	64	20.8	1	2	225	0.00	30.321 
08:55	32.2	32.2	32.2	63	21.0	1	2	225	0.00	30.321 
09:00	32.7	32.7	32.7	62	21.1	1	2	225	0.00	30.319 
09:05	33.1	33.1	33.1	61	21.1	0	3	338	0.00	30.319 
09:10	33.7	33.7	33.7	60	21.3	0	2	338	0.00	30.319 
09:15	34.1	34.1	34.1	58	20.9	0	3	338	0.00	30.323 
09:20	34.7	34.7	34.7	58	21.5	0	2	338	0.00	30.323 
09:25	35.3	35.3	35.3	57	21.6	0	2	248	0.00	30.323 
09:30	35.8	35.8	35.8	56	21.7	1	2	248	0.00	30.324 
09:35	36.2	36.2	36.2	55	21.6	1	3	270	0.00	30.324 
09:40	36.5	36.5	36.5	54	21.5	1	3	270	0.00	30.324 
09:45	36.8	36.8	36.8	54	21.7	1	3	270	0.00	30.328 
09:50	37.0	37.0	37.0	53	21.5	1	5	248	0.00	30.328 
09:55	37.5	37.5	37.5	53	21.9	1	3	248	0.00	30.328 
10:00	37.8	37.8	37.8	53	22.2	1	3	248	0.00	30.329 
10:05	38.2	38.2	38.2	51	21.7	2	5	338	0.00	30.329 
10:10	38.5	38.5	38.5	51	22.0	1	3	315	0.00	30.329 
10:15	38.8	38.8	38.8	52	22.7	1	3	338	0.00	30.329 
10:20	39.3	39.3	39.3	50	22.2	1	4	338	0.00	30.329 
10:25	39.5	39.5	39.5	51	22.9	1	5	315	0.00	30.329 
10:30	40.1	40.1	40.1	50	23.0	1	3	248	0.00	30.329 
10:35	40.5	40.5	40.5	50	23.3	1	3	270	0.00	30.329 
10:40	40.9	40.9	40.9	50	23.7	2	3	270	0.00	30.329 
10:45	41.2	41.2	41.2	47	22.5	1	3	315	0.00	30.329 
10:50	41.3	41.3	41.3	47	22.6	1	3	292	0.00	30.329 
10:55	41.5	41.5	41.5	47	22.8	1	5	292	0.00	30.329 
11:00	41.9	41.9	41.9	46	22.6	1	3	270	0.00	30.330 
11:05	42.2	42.2	42.2	45	22.4	2	4	315	0.00	30.330 
11:10	42.2	42.2	42.2	44	21.9	1	4	338	0.00	30.330 
11:15	42.3	42.3	42.3	44	22.0	1	5	338	0.00	30.330 
11:20	42.5	42.5	42.5	43	21.6	1	4	270	0.00	30.330 
11:25	42.8	42.8	42.8	44	22.4	1	5	270	0.00	30.330 
11:30	43.1	43.1	43.1	46	23.7	1	3	0	0.00	30.331 
11:35	43.8	43.8	43.8	46	24.4	1	5	270	0.00	30.331 
11:40	43.8	43.8	43.8	43	22.8	1	4	315	0.00	30.331 
11:45	43.9	43.9	43.9	44	23.4	1	4	315	0.00	30.328 
11:50	44.2	44.2	44.2	43	23.1	1	4	248	0.00	30.328 
11:55	44.3	44.3	44.3	43	23.2	1	5	338	0.00	30.328 
12:00	44.5	44.5	44.5	44	24.0	1	3	338	0.00	30.326 
12:05	44.9	44.9	44.9	43	23.8	1	2	315	0.00	30.326 
12:10	45.2	45.2	45.2	41	22.9	1	3	338	0.00	30.326 
12:15	45.2	45.2	45.2	41	22.9	1	5	338	0.00	30.327 
12:20	45.4	45.4	45.4	41	23.1	1	4	338	0.00	30.327 
12:25	45.5	45.5	45.5	40	22.6	1	4	315	0.00	30.327 
12:30	46.1	46.1	46.1	40	23.1	1	5	315	0.00	30.324 
12:35	46.2	46.2	46.2	38	22.0	2	5	248	0.00	30.324 
12:40	46.2	46.2	46.2	39	22.6	1	3	270	0.00	30.324 
12:45	46.4	46.4	46.4	40	23.4	1	4	0	0.00	30.319 
12:50	46.8	46.8	46.8	39	23.2	1	4	270	0.00	30.319 
12:55	47.4	47.4	47.4	39	23.7	1	3	270	0.00	30.319 
13:00	47.6	47.6	47.6	41	25.1	1	3	315	0.00	30.313 
13:05	47.4	47.4	47.4	41	24.9	1	4	338	0.00	30.313 
13:10	47.1	47.1	47.1	40	24.0	1	4	338	0.00	30.313 
13:15	47.6	47.6	47.6	37	22.6	2	3	270	0.00	30.313 
13:20	47.3	47.3	47.3	37	22.4	1	5	315	0.00	30.313 
13:25	47.4	47.4	47.4	38	23.1	1	4	292	0.00	30.313 
13:30	47.4	47.4	47.4	36	21.8	1	4	0	0.00	30.312 
13:35	47.7	47.7	47.7	38	23.4	2	4	248	0.00	30.312 
13:40	47.9	47.9	47.9	38	23.5	1	5	248	0.00	30.312 
13:45	48.3	48.3	48.3	36	22.6	1	3	248	0.00	30.310 
13:50	48.3	48.3	48.3	37	23.3	1	3	292	0.00	30.310 
13:55	48.2	48.2	48.2	38	23.8	1	4	315	0.00	30.310 
14:00	48.0	48.0	48.0	37	23.0	2	6	338	0.00	30.309 
14:05	48.5	48.5	48.5	38	24.1	2	4	248	0.00	30.309 
14:10	48.9	48.9	48.9	38	24.4	1	3	338	0.00	30.309 
14:15	49.2	49.2	49.2	37	24.1	2	4	292	0.00	30.311 
14:20	49.1	49.1	49.1	34	22.0	1	4	248	0.00	30.311 
14:25	49.1	49.1	49.1	37	24.0	1	3	248	0.00	30.311 
14:30	49.2	49.2	49.2	35	22.7	1	3	270	0.00	30.306 
14:35	49.4	49.4	49.4	36	23.6	2	5	338	0.00	30.306 
14:40	49.4	49.4	49.4	36	23.6	1	3	270	0.00	30.306 
14:45	49.6	49.6	49.6	38	25.0	2	6	270	0.00	30.299 
14:50	50.1	50.1	50.1	34	22.8	2	4	248	0.00	30.299 
14:55	49.9	49.9	49.9	33	22.0	3	5	248	0.00	30.299 
15:00	49.5	49.5	49.5	36	23.7	1	4	0	0.00	30.297 
15:05	49.6	49.6	49.6	34	22.4	2	4	248	0.00	30.297 
15:10	50.1	50.1	50.1	36	24.2	1	5	248	0.00	30.297 
15:15	50.4	50.4	50.4	33	22.4	1	4	270	0.00	30.294 
15:20	50.5	50.5	50.5	33	22.5	2	7	248	0.00	30.294 
15:25	50.4	50.4	50.4	36	24.5	1	3	248	0.00	30.294 
15:30	50.8	50.8	50.8	37	25.5	1	3	248	0.00	30.287 
15:35	50.8	50.8	50.8	35	24.1	2	4	248	0.00	30.287 
15:40	50.8	50.8	50.8	35	24.1	1	4	248	0.00	30.287 
15:45	50.4	50.4	50.4	36	24.5	1	4	292	0.00	30.283 
15:50	50.5	50.5	50.5	34	23.2	2	5	248	0.00	30.283 
15:55	50.2	50.2	50.2	35	23.6	2	5	292	0.00	30.283 
16:00	50.4	50.4	50.4	35	23.8	1	3	248	0.00	30.281 
16:05	50.1	50.1	50.1	36	24.2	2	5	248	0.00	30.281 
16:10	50.4	50.4	50.4	35	23.8	1	4	248	0.00	30.281 
16:15	50.7	50.7	50.7	33	22.7	2	6	248	0.00	30.279 
16:20	50.1	50.1	50.1	33	22.1	2	5	292	0.00	30.279 
16:25	49.8	49.8	49.8	34	22.6	2	5	270	0.00	30.279 
16:30	49.8	49.8	49.8	34	22.6	1	4	270	0.00	30.275 
16:35	49.9	49.9	49.9	33	22.0	2	7	248	0.00	30.275 
16:40	50.1	50.1	50.1	32	21.4	1	4	248	0.00	30.275 
16:45	49.9	49.9	49.9	34	22.7	1	3	225	0.00	30.274 
16:50	50.2	50.2	50.2	32	21.5	2	3	248	0.00	30.274 
16:55	49.9	49.9	49.9	32	21.2	1	4	292	0.00	30.274 
17:00	49.9	49.9	49.9	32	21.2	1	3	248	0.00	30.274 
17:05	49.9	49.9	49.9	31	20.5	2	5	270	0.00	30.274 
17:10	49.6	49.6	49.6	31	20.2	2	4	270	0.00	30.274 
17:15	49.4	49.4	49.4	30	19.3	1	4	315	0.00	30.273 
17:20	49.2	49.2	49.2	33	21.3	1	4	225	0.00	30.273 
17:25	49.6	49.6	49.6	34	22.4	1	3	248	0.00	30.273 
17:30	49.8	49.8	49.8	32	21.1	2	4	248	0.00	30.271 
17:35	49.6	49.6	49.6	33	21.7	1	3	338	0.00	30.271 
17:40	49.4	49.4	49.4	33	21.5	1	3	338	0.00	30.271 
17:45	49.4	49.4	49.4	33	21.5	1	3	338	0.00	30.268 
17:50	49.4	49.4	49.4	35	22.9	1	3	248	0.00	30.268 
17:55	49.6	49.6	49.6	35	23.1	1	2	248	0.00	30.268 
18:00	49.8	49.8	49.8	34	22.6	1	3	248	0.00	30.267 
18:05	49.5	49.5	49.5	34	22.3	1	3	338	0.00	30.267 
18:10	49.1	49.1	49.1	33	21.3	2	6	338	0.00	30.267 
18:15	48.8	48.8	48.8	35	22.4	1	4	270	0.00	30.267 
18:20	48.6	48.6	48.6	35	22.2	2	5	338	0.00	30.267 
18:25	48.6	48.6	48.6	36	22.9	1	2	338	0.00	30.267 
18:30	48.6	48.6	48.6	35	22.2	1	3	315	0.00	30.271 
18:35	48.3	48.3	48.3	35	21.9	1	3	315	0.00	30.271 
18:40	48.2	48.2	48.2	35	21.8	2	3	248	0.00	30.271 
18:45	48.0	48.0	48.0	36	22.3	1	3	338	0.00	30.275 
18:50	48.0	48.0	48.0	35	21.7	1	3	270	0.00	30.275 
18:55	47.9	47.9	47.9	36	22.2	0	2	292	0.00	30.275 
19:00	47.7	47.7	47.7	36	22.1	1	2	292	0.00	30.273 
19:05	47.7	47.7	47.7	37	22.7	1	4	292	0.00	30.273 
19:10	47.4	47.4	47.4	36	21.8	1	2	292	0.00	30.273 
19:15	47.3	47.3	47.3	37	22.4	1	6	292	0.00	30.274 
19:20	47.1	47.1	47.1	37	22.2	0	2	315	0.00	30.274 
19:25	46.8	46.8	46.8	38	22.5	0	1	315	0.00	30.274 
19:30	46.7	46.7	46.7	37	21.8	1	2	315	0.00	30.276 
19:35	46.5	46.5	46.5	38	22.3	0	2	315	0.00	30.276 
19:40	46.2	46.2	46.2	38	22.0	0	3	315	0.00	30.276 
19:45	46.0	46.0	46.0	38	21.8	0	1	315	0.00	30.279 
19:50	45.7	45.7	45.7	38	21.6	0	1	315	0.00	30.279 
19:55	45.5	45.5	45.5	39	22.0	0	1	315	0.00	30.279 
20:00	45.1	45.1	45.1	39	21.6	0	0	---	0.00	30.280 
20:05	44.8	44.8	44.8	40	22.0	0	0	---	0.00	30.280 
20:10	44.3	44.3	44.3	41	22.1	0	0	---	0.00	30.280 
20:15	43.8	43.8	43.8	42	22.2	0	0	---	0.00	30.279 
20:20	43.3	43.3	43.3	42	21.8	0	0	---	0.00	30.279 
20:25	42.8	42.8	42.8	43	21.9	0	0	---	0.00	30.279 
20:30	42.3	42.3	42.3	44	22.0	0	0	---	0.00	30.283 
20:35	41.8	41.8	41.8	46	22.6	0	0	---	0.00	30.283 
20:40	41.2	41.2	41.2	47	22.5	0	0	---	0.00	30.283 
20:45	40.6	40.6	40.6	49	23.0	0	0	---	0.00	30.288 
20:50	40.2	40.2	40.2	50	23.1	0	0	---	0.00	30.288 
20:55	39.8	39.8	39.8	50	22.7	0	0	---	0.00	30.288 
21:00	39.3	39.3	39.3	52	23.2	0	0	---	0.00	30.296 
21:05	39.1	39.1	39.1	53	23.4	0	1	315	0.00	30.296 
21:10	38.8	38.8	38.8	55	24.0	0	1	315	0.00	30.296 
21:15	38.6	38.6	38.6	56	24.3	0	1	315	0.00	30.294 
21:20	38.5	38.5	38.5	58	25.0	0	1	315	0.00	30.294 
21:25	38.8	38.8	38.8	62	26.9	0	2	315	0.00	30.294 
21:30	39.1	39.1	39.1	62	27.2	0	1	315	0.00	30.296 
21:35	39.2	39.2	39.2	63	27.7	0	2	315	0.00	30.296 
21:40	39.3	39.3	39.3	64	28.2	0	2	315	0.00	30.296 
21:45	39.5	39.5	39.5	65	28.7	0	2	315	0.00	30.300 
21:50	39.5	39.5	39.5	65	28.7	0	3	315	0.00	30.300 
21:55	39.5	39.5	39.5	64	28.3	0	2	315	0.00	30.300 
22:00	39.6	39.6	39.6	64	28.4	0	3	248	0.00	30.304 
22:05	39.6	39.6	39.6	64	28.4	0	2	248	0.00	30.304 
22:10	39.6	39.6	39.6	64	28.4	0	2	248	0.00	30.304 
22:15	39.6	39.6	39.6	63	28.1	0	2	248	0.00	30.305 
22:20	39.5	39.5	39.5	64	28.3	0	2	248	0.00	30.305 
22:25	39.2	39.2	39.2	64	28.1	0	1	248	0.00	30.305 
22:30	38.9	38.9	38.9	64	27.8	0	1	248	0.00	30.309 
22:35	38.5	38.5	38.5	65	27.8	0	1	248	0.00	30.309 
22:40	38.2	38.2	38.2	65	27.5	0	0	---	0.00	30.309 
22:45	37.8	37.8	37.8	65	27.1	0	0	---	0.00	30.309 
22:50	37.3	37.3	37.3	66	27.0	0	1	248	0.00	30.309 
22:55	37.2	37.2	37.2	68	27.6	0	1	248	0.00	30.309 
23:00	37.0	37.0	37.0	68	27.4	0	1	248	0.00	30.311 
23:05	37.0	37.0	37.0	68	27.4	0	1	248	0.00	30.311 
23:10	36.9	36.9	36.9	69	27.7	0	1	248	0.00	30.311 
23:15	36.9	36.9	36.9	69	27.7	0	1	248	0.00	30.307 
23:20	36.8	36.8	36.8	69	27.6	0	1	248	0.00	30.307 
23:25	36.8	36.8	36.8	69	27.6	0	1	248	0.00	30.307 
23:30	36.9	36.9	36.9	69	27.7	0	1	248	0.00	30.307 
23:35	36.9	36.9	36.9	69	27.7	0	1	248	0.00	30.307 
23:40	36.8	36.8	36.8	69	27.6	0	1	248	0.00	30.307 
23:45	36.5	36.5	36.5	69	27.3	0	1	248	0.00	30.307 
23:50	36.3	36.3	36.3	69	27.1	0	0	---	0.00	30.307 
23:55	36.0	36.0	36.0	70	27.2	0	0	---	0.00	30.307 

CoCoRaHS
IN-AL-39
A2 Web Hosting
Creative Commons License
GoDaddy
search engine by freefind advanced

loaded 2018-11-20 14:54:44 • last modified 2010-11-18 10:43:29
Privacy PolicyDisclaimer
• wx.awcolley.com is powered by PmWiki v.2002016 •
• all content (unless otherwise noted) © 2018 A W Colley